AirNav   Phillips 66 Aviation Fuel
 
 1693 users online  

61J Portland Downtown Heliport
Portland, Oregon, USA

GOING TO PORTLAND?


FAA INFORMATION EFFECTIVE 29 MARCH 2018

Location

FAA Identifier: 61J
Lat/Long: 45-31-31.0000N / 122-40-15.3440W
45-31.516667N / 122-40.255733W
45.5252778 / -122.6709289
(estimated)
Elevation: 78 ft. / 23.8 m (surveyed)
Variation: 18E (2000)
Time zone: UTC -7 (UTC -8 during Standard Time)
Zip code: 97209

Heliport Operations

Heliport use: Open to the public
Activation date: 07/1989
Control tower: no
ARTCC: SEATTLE CENTER
FSS: MC MINNVILLE FLIGHT SERVICE STATION
NOTAMs facility: MMV (NOTAM-D service available)
Attendance: UNATNDD
Wind indicator: lighted
Segmented circle: no
Lights: FOR HELIPORT PLASI WHEN APPROACHING FLT APCH & TKOF 020 - ACTVT CTAF 3 TIMES; WHEN APPROACHING FLIGHT APCH & TKOF 025 - ACTVT CTAF 5 TIMES; WHEN APPROACHING FLT APCH & TKOF 030 - ACTVT CTAF 7 TIMES.
Beacon: white-green-yellow (heliport)
Operates sunset to sunrise.
Landing fee: yes

Heliport Communications

CTAF/UNICOM: 123.075
WX ASOS at PDX (5 nm NE): PHONE 503-284-6771
WX ASOS at VUO (6 nm N): 135.125 (360-696-1280)
WX ASOS at TTD (11 nm E): 135.625 (503-492-2887)
WX ASOS at HIO (12 nm W): PHONE 503-640-2984
WX ASOS at SPB (17 nm NW): 135.875 (503-543-6401)
WX ASOS at UAO (17 nm S): PHONE 503-678-3011

Nearby radio navigation aids

VOR radial/distance  VOR name  Freq  Var
BTGr173/13.8BATTLE GROUND VORTAC116.6021E
UBGr030/16.5NEWBERG VOR/DME117.4021E

 
NDB name  Hdg/Dist  Freq  Var  ID
LAKER248/8.833216ELBH .-.. -... ....
BANKS096/17.035616EPND .--. -. -..
KELSO148/39.125617ELSO .-.. ... ---

Heliport Services

Airframe service: NONE
Powerplant service: NONE

Runway Information

Helipad H1

Dimensions: 80 x 80 ft. / 24 x 24 m
Surface: concrete, in good condition
Weight bearing capacity: 
Single wheel: 25.0
Runway edge lights: PERI
YELLOW PERIMETER LGTS; BLUE CNTRLN TWY LGTS TO HELIPADS.
Operational restrictions: SINGLE HELIPORT WITH 4 FLIGHT APCHS 162/220/248/295 & TKOF DIRECTIONS 342/040/068/115.
Traffic pattern: leftleft
Markings: basic, in good condition
Approach lights: ARROW LGTS FOR FLIGHT APCH 220/248/295 & TKOF 040/068/115.

Heliport Ownership and Management from official FAA records

Ownership: Publicly-owned
Owner: CITY OF PORTLAND,GEN SVCS
1120 SW 5 TH AVE
PORTLAND, OR 97204
Phone 503-796-5252
Manager: MICHAEL JACOBS
1120 SW 5TH AVENUE SUITE 800
PORTLAND, OR 97204
Phone (503) 823-7527
N. W. ROTORCRAFT ASSN.

Heliport Operational Statistics

Aircraft operations: avg 99/week *
59% transient general aviation
39% air taxi
2% military
* for 12-month period ending 20 September 2016

Additional Remarks

A52-H1 FLT APCH & TKOF 16 APCH 200 FT BRIDGE 950 FT FROM HELIPAD 280 FT L; FLT APCH & TKOF 20 APCH 225 FT LGTD BLDG 2100 FT FROM HELIPAD 300 FT L; FLT APCH & TKOF 25 APCH 375 FT LGTD BLDG 3600 FT FROM HELIPAD 350 FT R; & FLT APCH & TKOF 30 APCH 115 FT BRIDGE 930 FT FROM HELIPAD ACROSS APCH PATH.
+199 FT RADIO TOWER (LIGHTED) 4950 FT E OF HELIPORT IN FLT APCH & TKOF 025.
FOR CD CTC P80 APCH AT 503-493-7545.

Instrument Procedures

There are no published instrument procedures at 61J.

Some nearby airports with instrument procedures:

KPDX - Portland International Airport (5 nm NE)
KVUO - Pearson Field Airport (6 nm N)
KTTD - Portland-Troutdale Airport (11 nm E)
KHIO - Portland-Hillsboro Airport (12 nm W)
KSPB - Scappoose Industrial Airpark (17 nm NW)
KUAO - Aurora State Airport (17 nm S)
 
Loc | Ops | Rwys | IFR | FBO | Links
Com | Nav | Svcs | Stats | Notes

AirNav Hotels Sweepstakes
 
Area around 61J (Portland Downtown Heliport)
 
Road maps at: MapQuest Bing Google
 
Aerial photo
WARNING: Photo may not be current or correct
Aerial photo of 61J (Portland Downtown Heliport)
Photo by Brian Wilson
Photo taken 19-Apr-2006

Do you have a better or more recent aerial photo of Portland Downtown Heliport that you would like to share? If so, please send us your photo.

 
Sectional chart

 
Airport distance calculator
Flying to Portland Downtown Heliport? Find the distance to fly.

From to 61J

Sunrise and sunset
Times for 24-Apr-2018
 Local
(UTC-7)
 Zulu
(UTC)
Morning civil twilight05:3912:39
Sunrise06:1113:11
Sunset20:0703:07
Evening civil twilight20:3903:39

Current date and time
Zulu (UTC)  24-Apr-2018 17:44:31
Local (UTC-7)  24-Apr-2018 10:44:31
 
METAR
KPDX 
5nm NE 
241653Z 10015KT 10SM BKN300 21/02 A3013 RMK AO2 SLP204 T02060022
KVUO 
6nm N 
241653Z AUTO 10015G23KT 10SM CLR 21/M01 A3013 RMK AO2 SLP204 T02111006
KTTD 
11nm E 
241653Z 09016KT 10SM CLR 19/01 A3014 RMK AO2 SLP206 T01890011
KHIO 
12nm W 
241653Z 09014G24KT 10SM CLR 21/00 A3013 RMK AO2 SLP199 T02060000
KSPB 
17nm NW 
241653Z AUTO 11019G28KT 10SM CLR 21/M01 A3013 RMK AO2 PK WND 12031/1631 SLP203 T02061006
KUAO 
17nm S 
241653Z 07006KT 10SM SCT290 22/M01 A3011 RMK AO2 SLP194 T02171006
TAF
KPDX 
5nm NE 
232113Z 2321/2418 09015G25KT P6SM SKC FM240500 08012KT P6SM SKC FM241200 12009KT P6SM SKC
KTTD 
11nm E 
241137Z 2412/2512 10016G26KT P6SM FEW300 FM241600 10020G30KT P6SM FEW300 FM242200 10015G25KT P6SM BKN300 FM250400 10010KT P6SM BKN250
KHIO 
12nm W 
231907Z 2319/2418 05012G20KT P6SM SKC FM240300 09008KT P6SM SKC FM241200 13007KT P6SM SKC
KUAO 
17nm S 
241137Z 2412/2512 04005KT P6SM FEW300 FM241600 03013G21KT P6SM BKN300 FM242200 03011KT P6SM BKN300 FM250300 04007KT P6SM BKN250
NOTAMs
Click for the latest NOTAMs
NOTAMs are issued by the DoD/FAA and will open in a separate window not controlled by AirNav.

 

 
 

Would you like to see your business listed on this page?

 If your business provides an interesting product or service to pilots, flight crews, aircraft, or users of the Portland Downtown Heliport, you should consider listing it here.  To start the listing process, click on the button below
 
Add a business
 

Other Pages about Portland Downtown Heliport

Update a link
 
Copyright © AirNav, LLC. All rights reserved. Privacy Policy  Contact